Hauptseite
METAR-TAF:

METAR-TAF

Flughäfen :

Flugplatz Schwäbisch Hall-Hessental (Adolf Würth Airport)

Schwäbisch Hall, Deutschland

Breite: 49-07-06N, Länge: 9-47-02E, Höhe: 398 m

Beobachtung

Neuester Wetterbericht von vor 3 Stunden und 50 Minuten, um 19:20 UTC
Wind 3 kt aus unterschiedlichen Richtungen
Temperatur 5°C
Luftfeuchtigkeit 70%
Luftdruck 1004 hPa
Sichtweite 10 km oder mehr
Leicht bewölkt in der Höhe von 3900 ft
Durchbrochene Bewölkung in der Höhe von 6000 ft

METAR: EDTY 121920Z VRB03KT 9999 FEW039 BKN060 05/M00 Q1004

Zeit: 00:10 (23:10 UTC)

Prognose

Neuester Wetterbericht von vor 6 Stunden und 10 Minuten, um 17:00 UTC
Gültige Prognose vom 12 um 18 UTC bis 13 um 03 UTC
Wind 3 kt aus Süd
Sichtweite 10 km oder mehr
keine Wolken unter 1500 m und keine Kumulonimbus oder Gewitterwolken

TAF: EDTY 121700Z 1218/1303 17003KT CAVOK

Wetterbeobachtungen und Prognosen von mehr als 4000 Flughäfen (METAR und TAF Bericht).

Die verfügbaren Stationen werden durch gelbe und rote Markierungen auf der Karte dargestellt.

Führen Sie die Maus auf sie, um den Namen der Station zu sehen.

Darauf klicken, um die Beobachtung von Wetterbeobachtungen und Prognosen zu sehen.

Um die Karte zu ändern : klicken Sie auf den grünen Tasten mit einem schwarzen Kreuz Zum Vergrößern, auf den grünen Button mit einem Gedankenstrich zu verkleinern, oder auf die grünen Pfeile für benachbarte Karten.


METAR-TAF: